createdAt,value
2018-06-24T00:00:19.777Z,0
2018-06-24T00:01:00.322Z,0
2018-06-24T00:01:40.902Z,0
2018-06-24T00:02:21.463Z,0
2018-06-24T00:03:02.035Z,0
2018-06-24T00:03:42.623Z,0
2018-06-24T00:04:23.177Z,0
2018-06-24T00:05:03.738Z,0
2018-06-24T00:05:44.344Z,0
2018-06-24T00:06:24.860Z,0
2018-06-24T00:07:05.416Z,0
2018-06-24T00:07:45.985Z,0
2018-06-24T00:08:26.549Z,0
2018-06-24T00:09:07.111Z,0
2018-06-24T00:09:47.684Z,0
2018-06-24T00:10:28.225Z,0
2018-06-24T00:11:08.771Z,0
2018-06-24T00:11:49.326Z,0
2018-06-24T00:12:29.878Z,0
2018-06-24T00:13:10.444Z,0
2018-06-24T00:13:51.083Z,0
2018-06-24T00:14:31.592Z,0
2018-06-24T00:15:12.152Z,0
2018-06-24T00:15:52.754Z,0
2018-06-24T00:16:33.314Z,0
2018-06-24T00:17:13.863Z,0
2018-06-24T00:17:54.420Z,0
2018-06-24T00:18:35.029Z,0
2018-06-24T00:19:15.567Z,0
2018-06-24T00:19:56.135Z,0
2018-06-24T00:20:36.707Z,0
2018-06-24T00:21:17.248Z,0
2018-06-24T00:21:57.812Z,0
2018-06-24T00:22:38.367Z,0
2018-06-24T00:23:18.910Z,0
2018-06-24T00:23:59.488Z,0
2018-06-24T00:24:40.077Z,0
2018-06-24T00:25:20.628Z,0
2018-06-24T00:26:01.198Z,0
2018-06-24T00:26:41.764Z,0
2018-06-24T00:27:22.333Z,0
2018-06-24T00:28:02.904Z,0
2018-06-24T00:28:43.512Z,0
2018-06-24T00:29:24.275Z,0
2018-06-24T00:30:04.980Z,0
2018-06-24T00:30:45.555Z,0
2018-06-24T00:31:26.204Z,0
2018-06-24T00:32:06.775Z,0
2018-06-24T00:32:47.329Z,0
2018-06-24T00:33:27.980Z,0
2018-06-24T00:34:08.613Z,0
2018-06-24T00:34:49.207Z,0
2018-06-24T00:35:29.896Z,0
2018-06-24T00:36:10.524Z,0
2018-06-24T00:36:51.247Z,0
2018-06-24T00:37:31.794Z,0
2018-06-24T00:38:12.359Z,0
2018-06-24T00:38:53.097Z,0
2018-06-24T00:39:33.708Z,0
2018-06-24T00:40:14.178Z,0
2018-06-24T00:40:54.723Z,0
2018-06-24T00:41:35.297Z,0
2018-06-24T00:42:15.855Z,0
2018-06-24T00:42:56.423Z,0
2018-06-24T00:43:37.006Z,0
2018-06-24T00:44:17.558Z,0
2018-06-24T00:44:58.106Z,0
2018-06-24T00:45:38.670Z,0
2018-06-24T00:46:19.233Z,0
2018-06-24T00:46:59.791Z,0
2018-06-24T00:47:40.350Z,0
2018-06-24T00:48:20.902Z,0
2018-06-24T00:49:01.546Z,0
2018-06-24T00:49:42.038Z,0
2018-06-24T00:50:22.608Z,0
2018-06-24T00:51:03.167Z,0
2018-06-24T00:51:43.734Z,0
2018-06-24T00:52:24.305Z,0
2018-06-24T00:53:04.878Z,0
2018-06-24T00:53:45.440Z,0
2018-06-24T00:54:26.009Z,0
2018-06-24T00:55:06.593Z,0
2018-06-24T00:55:47.184Z,0
2018-06-24T00:56:27.762Z,0
2018-06-24T00:57:08.317Z,0
2018-06-24T00:57:48.863Z,0
2018-06-24T00:58:29.429Z,0
2018-06-24T00:59:09.967Z,0
2018-06-24T00:59:50.581Z,0
2018-06-24T01:00:31.156Z,0
2018-06-24T01:01:11.709Z,0
2018-06-24T01:01:52.273Z,0
2018-06-24T01:02:32.831Z,0
2018-06-24T01:03:13.406Z,0
2018-06-24T01:03:53.985Z,0
2018-06-24T01:04:34.524Z,0
2018-06-24T01:05:15.084Z,0
2018-06-24T01:05:55.623Z,0
2018-06-24T01:06:36.221Z,0
2018-06-24T01:07:16.794Z,0
2018-06-24T01:07:57.360Z,0
2018-06-24T01:08:37.945Z,0
2018-06-24T01:09:18.492Z,0
2018-06-24T01:09:59.099Z,0
2018-06-24T01:10:39.732Z,0
2018-06-24T01:11:20.257Z,0
2018-06-24T01:12:00.815Z,0
2018-06-24T01:12:41.370Z,0
2018-06-24T01:13:21.929Z,0
2018-06-24T01:14:03.030Z,0
2018-06-24T01:14:43.063Z,0
2018-06-24T01:15:23.635Z,0
2018-06-24T01:16:04.201Z,0
2018-06-24T01:16:44.765Z,0
2018-06-24T01:17:25.362Z,0
2018-06-24T01:18:05.924Z,0
2018-06-24T01:18:46.489Z,0
2018-06-24T01:19:27.049Z,0
2018-06-24T01:20:07.632Z,0
2018-06-24T01:20:48.189Z,0
2018-06-24T01:21:28.754Z,0
2018-06-24T01:22:09.297Z,0
2018-06-24T01:22:49.857Z,0
2018-06-24T01:23:30.422Z,0
2018-06-24T01:24:10.993Z,0
2018-06-24T01:24:51.565Z,0
2018-06-24T01:25:32.122Z,0
2018-06-24T01:26:12.688Z,0
2018-06-24T01:26:53.249Z,0
2018-06-24T01:27:33.799Z,0
2018-06-24T01:28:14.359Z,0
2018-06-24T01:28:54.919Z,0
2018-06-24T01:29:35.488Z,0
2018-06-24T01:30:16.045Z,0
2018-06-24T01:30:56.610Z,0
2018-06-24T01:31:37.198Z,0
2018-06-24T01:32:17.736Z,0
2018-06-24T01:32:58.293Z,0
2018-06-24T01:33:38.839Z,0
2018-06-24T01:34:19.397Z,0
2018-06-24T01:34:59.996Z,0
2018-06-24T01:35:40.562Z,0
2018-06-24T01:36:21.125Z,0
2018-06-24T01:37:01.664Z,0
2018-06-24T01:37:42.229Z,0
2018-06-24T01:38:22.796Z,0
2018-06-24T01:39:03.355Z,0
2018-06-24T01:39:43.913Z,0
2018-06-24T01:40:24.480Z,0
2018-06-24T01:41:05.031Z,0
2018-06-24T01:41:45.604Z,0
2018-06-24T01:42:26.172Z,0
2018-06-24T01:43:06.729Z,0
2018-06-24T01:43:47.299Z,0
2018-06-24T01:44:27.850Z,0
2018-06-24T01:45:08.418Z,0
2018-06-24T01:45:48.990Z,0
2018-06-24T01:46:29.568Z,0
2018-06-24T01:47:10.132Z,0
2018-06-24T01:47:50.696Z,0
2018-06-24T01:48:31.249Z,0
2018-06-24T01:49:11.830Z,0
2018-06-24T01:49:52.374Z,0
2018-06-24T01:50:32.942Z,0
2018-06-24T01:51:13.520Z,0
2018-06-24T01:51:54.085Z,0
2018-06-24T01:52:34.653Z,0
2018-06-24T01:53:15.230Z,0
2018-06-24T01:53:55.807Z,0
2018-06-24T01:54:36.376Z,0
2018-06-24T01:55:16.929Z,0
2018-06-24T01:55:57.479Z,0
2018-06-24T01:56:38.040Z,0
2018-06-24T01:57:18.623Z,0
2018-06-24T01:57:59.199Z,0
2018-06-24T01:58:39.759Z,0
2018-06-24T01:59:20.307Z,0
2018-06-24T02:00:00.878Z,0
2018-06-24T02:00:41.437Z,0
2018-06-24T02:01:22.005Z,0
2018-06-24T02:02:02.568Z,0
2018-06-24T02:02:43.125Z,0
2018-06-24T02:03:23.694Z,0
2018-06-24T02:04:04.244Z,0
2018-06-24T02:04:44.885Z,0
2018-06-24T02:05:25.421Z,0
2018-06-24T02:06:05.992Z,0
2018-06-24T02:06:46.555Z,0
2018-06-24T02:07:27.131Z,0
2018-06-24T02:08:07.699Z,0
2018-06-24T02:08:48.248Z,0
2018-06-24T02:09:28.826Z,0
2018-06-24T02:10:09.404Z,0
2018-06-24T02:10:49.963Z,0
2018-06-24T02:11:30.508Z,0
2018-06-24T02:12:11.090Z,0
2018-06-24T02:12:51.703Z,0
2018-06-24T02:13:32.261Z,0
2018-06-24T02:14:12.827Z,0
2018-06-24T02:14:53.416Z,0
2018-06-24T02:15:33.987Z,0
2018-06-24T02:16:14.546Z,0
2018-06-24T02:16:55.111Z,0
2018-06-24T02:17:35.682Z,0
2018-06-24T02:18:16.247Z,0
2018-06-24T02:18:56.820Z,0
2018-06-24T02:19:37.369Z,0
2018-06-24T02:20:17.922Z,0
2018-06-24T02:20:58.474Z,0
2018-06-24T02:21:39.045Z,0
2018-06-24T02:22:19.596Z,4
2018-06-24T02:23:00.148Z,4
2018-06-24T02:23:40.680Z,4
2018-06-24T02:24:21.219Z,4
2018-06-24T02:25:01.783Z,4
2018-06-24T02:25:42.336Z,0
2018-06-24T02:26:22.901Z,0
2018-06-24T02:27:03.455Z,0
2018-06-24T02:27:44.012Z,4
2018-06-24T02:28:24.574Z,0
2018-06-24T02:29:05.134Z,4
2018-06-24T02:29:45.693Z,4
2018-06-24T02:30:26.263Z,4
2018-06-24T02:31:06.800Z,8
2018-06-24T02:31:47.369Z,4
2018-06-24T02:32:27.919Z,4
2018-06-24T02:33:08.472Z,4
2018-06-24T02:33:49.032Z,8
2018-06-24T02:34:29.590Z,4
2018-06-24T02:35:10.171Z,8
2018-06-24T02:35:50.713Z,8
2018-06-24T02:36:31.280Z,8
2018-06-24T02:37:11.842Z,12
2018-06-24T02:37:52.406Z,12
2018-06-24T02:38:32.975Z,12
2018-06-24T02:39:13.549Z,12
2018-06-24T02:39:54.116Z,12
2018-06-24T02:40:34.669Z,12
2018-06-24T02:41:15.246Z,16
2018-06-24T02:41:55.810Z,16
2018-06-24T02:42:36.384Z,16
2018-06-24T02:43:16.939Z,16
2018-06-24T02:43:57.500Z,20
2018-06-24T02:44:38.054Z,20
2018-06-24T02:45:18.628Z,20
2018-06-24T02:45:59.180Z,16
2018-06-24T02:46:39.753Z,20
2018-06-24T02:47:20.308Z,20
2018-06-24T02:48:00.873Z,20
2018-06-24T02:48:41.440Z,24
2018-06-24T02:49:22.003Z,28
2018-06-24T02:50:02.559Z,28
2018-06-24T02:50:43.125Z,32
2018-06-24T02:51:23.682Z,32
2018-06-24T02:52:04.231Z,28
2018-06-24T02:52:44.783Z,32
2018-06-24T02:53:25.343Z,28
2018-06-24T02:54:05.914Z,28
2018-06-24T02:54:46.470Z,36
2018-06-24T02:55:27.034Z,36
2018-06-24T02:56:07.610Z,32
2018-06-24T02:56:48.181Z,32
2018-06-24T02:57:28.737Z,32
2018-06-24T02:58:09.291Z,36
2018-06-24T02:58:49.855Z,36
2018-06-24T02:59:30.407Z,36
2018-06-24T03:00:10.957Z,40
2018-06-24T03:00:51.511Z,44
2018-06-24T03:01:32.069Z,44
2018-06-24T03:02:12.646Z,48
2018-06-24T03:02:53.201Z,44
2018-06-24T03:03:33.748Z,44
2018-06-24T03:04:14.317Z,48
2018-06-24T03:04:54.855Z,52
2018-06-24T03:05:35.426Z,56
2018-06-24T03:06:15.992Z,64
2018-06-24T03:06:56.624Z,76
2018-06-24T03:07:37.180Z,88
2018-06-24T03:08:17.763Z,88
2018-06-24T03:08:58.330Z,88
2018-06-24T03:09:38.901Z,88
2018-06-24T03:10:19.463Z,80
2018-06-24T03:11:00.011Z,84
2018-06-24T03:11:40.577Z,88
2018-06-24T03:12:21.126Z,84
2018-06-24T03:13:01.680Z,84
2018-06-24T03:13:42.234Z,88
2018-06-24T03:14:22.776Z,80
2018-06-24T03:15:03.338Z,88
2018-06-24T03:15:43.897Z,92
2018-06-24T03:16:24.460Z,96
2018-06-24T03:17:05.006Z,92
2018-06-24T03:17:45.610Z,100
2018-06-24T03:18:26.150Z,112
2018-06-24T03:19:06.713Z,112
2018-06-24T03:19:47.282Z,116
2018-06-24T03:20:27.828Z,120
2018-06-24T03:21:08.388Z,116
2018-06-24T03:21:48.927Z,120
2018-06-24T03:22:29.488Z,116
2018-06-24T03:23:10.052Z,100
2018-06-24T03:23:50.624Z,100
2018-06-24T03:24:31.175Z,100
2018-06-24T03:25:11.760Z,100
2018-06-24T03:25:52.340Z,104
2018-06-24T03:26:32.892Z,108
2018-06-24T03:27:13.462Z,116
2018-06-24T03:27:54.033Z,120
2018-06-24T03:28:34.591Z,112
2018-06-24T03:29:15.145Z,108
2018-06-24T03:29:55.756Z,124
2018-06-24T03:30:36.297Z,132
2018-06-24T03:31:16.857Z,132
2018-06-24T03:31:57.411Z,136
2018-06-24T03:32:37.976Z,136
2018-06-24T03:33:18.697Z,148
2018-06-24T03:33:59.134Z,164
2018-06-24T03:34:39.696Z,172
2018-06-24T03:35:20.250Z,160
2018-06-24T03:36:00.813Z,172
2018-06-24T03:36:41.376Z,200
2018-06-24T03:37:21.963Z,228
2018-06-24T03:38:02.531Z,232
2018-06-24T03:38:43.070Z,224
2018-06-24T03:39:23.634Z,232
2018-06-24T03:40:04.182Z,244
2018-06-24T03:40:44.753Z,260
2018-06-24T03:41:25.296Z,252
2018-06-24T03:42:05.857Z,268
2018-06-24T03:42:46.431Z,276
2018-06-24T03:43:26.985Z,276
2018-06-24T03:44:07.570Z,272
2018-06-24T03:44:48.135Z,248
2018-06-24T03:45:28.707Z,264
2018-06-24T03:46:09.252Z,276
2018-06-24T03:46:49.795Z,268
2018-06-24T03:47:30.357Z,264
2018-06-24T03:48:10.921Z,248
2018-06-24T03:48:51.489Z,248
2018-06-24T03:49:32.054Z,240
2018-06-24T03:50:12.611Z,228
2018-06-24T03:50:53.199Z,208
2018-06-24T03:51:33.775Z,208
2018-06-24T03:52:14.305Z,236
2018-06-24T03:52:54.865Z,232
2018-06-24T03:53:35.398Z,248
2018-06-24T03:54:15.952Z,244
2018-06-24T03:54:56.508Z,240
2018-06-24T03:55:37.083Z,260
2018-06-24T03:56:17.630Z,264
2018-06-24T03:56:58.215Z,264
2018-06-24T03:57:38.770Z,272
2018-06-24T03:58:19.330Z,300
2018-06-24T03:58:59.896Z,344
2018-06-24T03:59:40.483Z,380
2018-06-24T04:00:21.009Z,376
2018-06-24T04:01:01.564Z,384
2018-06-24T04:01:42.122Z,420
2018-06-24T04:02:22.666Z,456
2018-06-24T04:03:03.199Z,476
2018-06-24T04:03:43.756Z,472
2018-06-24T04:04:24.296Z,484
2018-06-24T04:05:04.853Z,512
2018-06-24T04:05:45.419Z,548
2018-06-24T04:06:26.023Z,564
2018-06-24T04:07:06.604Z,536
2018-06-24T04:07:47.178Z,468
2018-06-24T04:08:27.731Z,484
2018-06-24T04:09:08.318Z,468
2018-06-24T04:09:48.870Z,476
2018-06-24T04:10:29.411Z,540
2018-06-24T04:11:09.993Z,600
2018-06-24T04:11:50.541Z,652
2018-06-24T04:12:31.110Z,640
2018-06-24T04:13:11.662Z,692
2018-06-24T04:13:52.219Z,676
2018-06-24T04:14:32.769Z,700
2018-06-24T04:15:13.333Z,700
2018-06-24T04:15:53.886Z,724
2018-06-24T04:16:34.445Z,724
2018-06-24T04:17:14.992Z,692
2018-06-24T04:17:55.617Z,696
2018-06-24T04:18:36.180Z,692
2018-06-24T04:19:16.809Z,600
2018-06-24T04:19:57.376Z,644
2018-06-24T04:20:37.949Z,644
2018-06-24T04:21:18.500Z,612
2018-06-24T04:21:59.049Z,600
2018-06-24T04:22:39.616Z,596
2018-06-24T04:23:20.158Z,556
2018-06-24T04:24:00.704Z,588
2018-06-24T04:24:41.267Z,556
2018-06-24T04:25:21.808Z,524
2018-06-24T04:26:02.355Z,536
2018-06-24T04:26:42.933Z,556
2018-06-24T04:27:23.481Z,560
2018-06-24T04:28:04.036Z,544
2018-06-24T04:28:44.616Z,588
2018-06-24T04:29:25.170Z,596
2018-06-24T04:30:05.732Z,640
2018-06-24T04:30:46.289Z,640
2018-06-24T04:31:26.838Z,556
2018-06-24T04:32:07.400Z,524
2018-06-24T04:32:47.963Z,520
2018-06-24T04:33:28.503Z,568
2018-06-24T04:34:09.053Z,596
2018-06-24T04:34:49.619Z,632
2018-06-24T04:35:30.178Z,660
2018-06-24T04:36:10.717Z,724
2018-06-24T04:36:51.285Z,728
2018-06-24T04:37:31.820Z,696
2018-06-24T04:38:12.376Z,616
2018-06-24T04:38:52.942Z,508
2018-06-24T04:39:33.481Z,520
2018-06-24T04:40:14.026Z,528
2018-06-24T04:40:54.574Z,524
2018-06-24T04:41:35.124Z,568
2018-06-24T04:42:15.680Z,632
2018-06-24T04:42:56.229Z,640
2018-06-24T04:43:36.759Z,676
2018-06-24T04:44:17.297Z,724
2018-06-24T04:44:57.851Z,656
2018-06-24T04:45:38.423Z,744
2018-06-24T04:46:18.952Z,728
2018-06-24T04:46:59.507Z,720
2018-06-24T04:47:40.054Z,672
2018-06-24T04:48:20.634Z,648
2018-06-24T04:49:01.158Z,700
2018-06-24T04:49:41.739Z,776
2018-06-24T04:50:22.276Z,708
2018-06-24T04:51:02.819Z,760
2018-06-24T04:51:43.478Z,720
2018-06-24T04:52:23.918Z,736
2018-06-24T04:53:04.494Z,752
2018-06-24T04:53:45.068Z,808
2018-06-24T04:54:25.644Z,840
2018-06-24T04:55:06.209Z,844
2018-06-24T04:55:46.758Z,800
2018-06-24T04:56:27.306Z,788
2018-06-24T04:57:07.860Z,820
2018-06-24T04:57:48.419Z,840
2018-06-24T04:58:28.968Z,772
2018-06-24T04:59:09.523Z,736
2018-06-24T04:59:50.067Z,640
2018-06-24T05:00:30.625Z,700
2018-06-24T05:01:11.171Z,740
2018-06-24T05:01:51.749Z,768
2018-06-24T05:02:32.319Z,832
2018-06-24T05:03:12.876Z,796
2018-06-24T05:03:53.429Z,820
2018-06-24T05:04:33.997Z,860
2018-06-24T05:05:14.552Z,852
2018-06-24T05:05:55.096Z,880
2018-06-24T05:06:35.733Z,884
2018-06-24T05:07:16.221Z,852
2018-06-24T05:07:56.768Z,852
2018-06-24T05:08:37.325Z,832
2018-06-24T05:09:17.889Z,860
2018-06-24T05:09:58.443Z,876
2018-06-24T05:10:38.999Z,972
2018-06-24T05:11:19.547Z,944
2018-06-24T05:12:00.099Z,952
2018-06-24T05:12:40.650Z,996
2018-06-24T05:13:21.201Z,1024
2018-06-24T05:14:01.746Z,1056
2018-06-24T05:14:42.303Z,1060
2018-06-24T05:15:22.877Z,1000
2018-06-24T05:16:03.452Z,948
2018-06-24T05:16:44.004Z,964
2018-06-24T05:17:24.542Z,1100
2018-06-24T05:18:05.102Z,1128
2018-06-24T05:18:45.672Z,1196
2018-06-24T05:19:26.230Z,1144
2018-06-24T05:20:06.790Z,1164
2018-06-24T05:20:47.342Z,1296
2018-06-24T05:21:27.906Z,1312
2018-06-24T05:22:08.459Z,1500
2018-06-24T05:22:48.997Z,1460
2018-06-24T05:23:29.545Z,1396
2018-06-24T05:24:10.094Z,1292
2018-06-24T05:24:50.644Z,1312
2018-06-24T05:25:31.194Z,1324
2018-06-24T05:26:11.762Z,1416
2018-06-24T05:26:52.327Z,1392
2018-06-24T05:27:32.883Z,1372
2018-06-24T05:28:13.436Z,1288
2018-06-24T05:28:53.968Z,1172
2018-06-24T05:29:34.535Z,1080
2018-06-24T05:30:15.086Z,1124
2018-06-24T05:30:55.640Z,1156
2018-06-24T05:31:36.222Z,1012
2018-06-24T05:32:16.791Z,884
2018-06-24T05:32:57.349Z,844
2018-06-24T05:33:37.904Z,844
2018-06-24T05:34:18.465Z,848
2018-06-24T05:34:59.015Z,840
2018-06-24T05:35:39.582Z,876
2018-06-24T05:36:20.140Z,1016
2018-06-24T05:37:00.694Z,1072
2018-06-24T05:37:41.317Z,964
2018-06-24T05:38:21.824Z,948
2018-06-24T05:39:02.384Z,964
2018-06-24T05:39:42.940Z,912
2018-06-24T05:40:23.512Z,920
2018-06-24T05:41:04.096Z,924
2018-06-24T05:41:44.661Z,940
2018-06-24T05:42:25.230Z,956
2018-06-24T05:43:05.798Z,920
2018-06-24T05:43:46.366Z,956
2018-06-24T05:44:26.995Z,972
2018-06-24T05:45:07.551Z,944
2018-06-24T05:45:48.098Z,920
2018-06-24T05:46:28.651Z,1092
2018-06-24T05:47:09.204Z,1016
2018-06-24T05:47:49.776Z,972
2018-06-24T05:48:30.329Z,916
2018-06-24T05:49:10.885Z,944
2018-06-24T05:49:51.430Z,1020
2018-06-24T05:50:32.003Z,1032
2018-06-24T05:51:12.536Z,836
2018-06-24T05:51:53.075Z,820
2018-06-24T05:52:33.644Z,856
2018-06-24T05:53:14.204Z,968
2018-06-24T05:53:54.744Z,1016
2018-06-24T05:54:35.291Z,1092
2018-06-24T05:55:15.835Z,1060
2018-06-24T05:55:56.378Z,1052
2018-06-24T05:56:36.944Z,1020
2018-06-24T05:57:17.537Z,1176
2018-06-24T05:57:58.090Z,1144
2018-06-24T05:58:38.649Z,1068
2018-06-24T05:59:19.200Z,1132
2018-06-24T05:59:59.773Z,1288
2018-06-24T06:00:40.313Z,1160
2018-06-24T06:01:20.876Z,1288
2018-06-24T06:02:01.445Z,1348
2018-06-24T06:02:42.068Z,1396
2018-06-24T06:03:22.600Z,1424
2018-06-24T06:04:03.227Z,1468
2018-06-24T06:04:43.823Z,1588
2018-06-24T06:05:24.402Z,1564
2018-06-24T06:06:04.976Z,1488
2018-06-24T06:06:45.634Z,1568
2018-06-24T06:07:26.182Z,1684
2018-06-24T06:08:06.734Z,1720
2018-06-24T06:08:47.307Z,1672
2018-06-24T06:09:27.872Z,1616
2018-06-24T06:10:08.525Z,1600
2018-06-24T06:10:48.994Z,1664
2018-06-24T06:11:29.539Z,1528
2018-06-24T06:12:10.098Z,1348
2018-06-24T06:12:50.652Z,1676
2018-06-24T06:13:31.214Z,1544
2018-06-24T06:14:11.786Z,1384
2018-06-24T06:14:52.327Z,1356
2018-06-24T06:15:32.891Z,1444
2018-06-24T06:16:13.473Z,1496
2018-06-24T06:16:54.064Z,1508
2018-06-24T06:17:34.618Z,1452
2018-06-24T06:18:15.170Z,1520
2018-06-24T06:18:55.719Z,1536
2018-06-24T06:19:36.298Z,1592
2018-06-24T06:20:16.858Z,1512
2018-06-24T06:20:57.419Z,1540
2018-06-24T06:21:37.987Z,1504
2018-06-24T06:22:18.550Z,1552
2018-06-24T06:22:59.113Z,1444
2018-06-24T06:23:39.661Z,1388
2018-06-24T06:24:20.209Z,1140
2018-06-24T06:25:00.777Z,1028
2018-06-24T06:25:41.324Z,1060
2018-06-24T06:26:21.875Z,1108
2018-06-24T06:27:02.439Z,1172
2018-06-24T06:27:42.976Z,1168
2018-06-24T06:28:23.530Z,1244
2018-06-24T06:29:04.099Z,1332
2018-06-24T06:29:44.689Z,1368
2018-06-24T06:30:25.330Z,1320
2018-06-24T06:31:05.961Z,1304
2018-06-24T06:31:46.535Z,1372
2018-06-24T06:32:27.020Z,1460
2018-06-24T06:33:07.567Z,1568
2018-06-24T06:33:48.118Z,1760
2018-06-24T06:34:28.665Z,1864
2018-06-24T06:35:09.260Z,1852
2018-06-24T06:35:49.824Z,1908
2018-06-24T06:36:30.391Z,1912
2018-06-24T06:37:10.968Z,1868
2018-06-24T06:37:51.629Z,1864
2018-06-24T06:38:32.226Z,2152
2018-06-24T06:39:12.793Z,2220
2018-06-24T06:39:53.419Z,2252
2018-06-24T06:40:33.994Z,2436
2018-06-24T06:41:14.553Z,2356
2018-06-24T06:41:55.176Z,2380
2018-06-24T06:42:35.725Z,2428
2018-06-24T06:43:16.276Z,2372
2018-06-24T06:43:56.823Z,2292
2018-06-24T06:44:37.388Z,2596
2018-06-24T06:45:17.996Z,3128
2018-06-24T06:45:58.511Z,3712
2018-06-24T06:46:39.085Z,3268
2018-06-24T06:47:19.693Z,3320
2018-06-24T06:48:00.305Z,2884
2018-06-24T06:48:40.872Z,2652
2018-06-24T06:49:21.471Z,2592
2018-06-24T06:50:02.049Z,2512
2018-06-24T06:50:42.634Z,2700
2018-06-24T06:51:23.212Z,2804
2018-06-24T06:52:03.783Z,2596
2018-06-24T06:52:44.438Z,2700
2018-06-24T06:53:25.078Z,2760
2018-06-24T06:54:05.650Z,2816
2018-06-24T06:54:46.193Z,2956
2018-06-24T06:55:26.725Z,3104
2018-06-24T06:56:07.297Z,2892
2018-06-24T06:56:47.836Z,2620
2018-06-24T06:57:28.414Z,2376
2018-06-24T06:58:09.023Z,2276
2018-06-24T06:58:49.675Z,2280
2018-06-24T06:59:30.277Z,2636
2018-06-24T07:00:10.896Z,2984
2018-06-24T07:00:51.445Z,2956
2018-06-24T07:01:32.080Z,3292
2018-06-24T07:02:12.714Z,3272
2018-06-24T07:02:53.263Z,3504
2018-06-24T07:03:33.901Z,3480
2018-06-24T07:04:14.599Z,3256
2018-06-24T07:04:55.235Z,3612
2018-06-24T07:05:35.779Z,3828
2018-06-24T07:06:16.489Z,4128
2018-06-24T07:06:57.019Z,4480
2018-06-24T07:07:37.614Z,4316
2018-06-24T07:08:18.227Z,3992
2018-06-24T07:08:58.940Z,4028
2018-06-24T07:09:39.504Z,4380
2018-06-24T07:10:20.077Z,3616
2018-06-24T07:11:00.709Z,3364
2018-06-24T07:11:41.497Z,2884
2018-06-24T07:12:22.239Z,2984
2018-06-24T07:13:02.864Z,2244
2018-06-24T07:13:43.428Z,2352
2018-06-24T07:14:24.022Z,2016
2018-06-24T07:15:04.577Z,1876
2018-06-24T07:15:45.164Z,2116
2018-06-24T07:16:25.845Z,2072
2018-06-24T07:17:06.435Z,1708
2018-06-24T07:17:47.077Z,1788
2018-06-24T07:18:27.576Z,1748
2018-06-24T07:19:08.233Z,2064
2018-06-24T07:19:48.892Z,2068
2018-06-24T07:20:29.535Z,2136
2018-06-24T07:21:10.134Z,2368
2018-06-24T07:21:50.713Z,2544
2018-06-24T07:22:31.334Z,2940
2018-06-24T07:23:11.961Z,2960
2018-06-24T07:23:52.513Z,3308
2018-06-24T07:24:33.071Z,3304
2018-06-24T07:25:13.630Z,3644
2018-06-24T07:25:54.282Z,3928
2018-06-24T07:26:34.827Z,3956
2018-06-24T07:27:15.404Z,3760
2018-06-24T07:27:55.980Z,3568
2018-06-24T07:28:36.579Z,3444
2018-06-24T07:29:17.263Z,3088
2018-06-24T07:29:57.884Z,2572
2018-06-24T07:30:38.444Z,2168
2018-06-24T07:31:19.081Z,2308
2018-06-24T07:31:59.849Z,2472
2018-06-24T07:32:40.573Z,2484
2018-06-24T07:33:21.273Z,2844
2018-06-24T07:34:02.370Z,3004
2018-06-24T07:34:42.990Z,2896
2018-06-24T07:35:23.617Z,3288
2018-06-24T07:36:04.419Z,3548
2018-06-24T07:36:45.219Z,4156
2018-06-24T07:37:25.933Z,4164
2018-06-24T07:38:06.483Z,3708
2018-06-24T07:38:47.443Z,3472
2018-06-24T07:39:28.334Z,4040
2018-06-24T07:40:09.152Z,3908
2018-06-24T07:40:49.972Z,3700
2018-06-24T07:41:30.556Z,3488
2018-06-24T07:42:11.508Z,3536
2018-06-24T07:42:52.098Z,3104
2018-06-24T07:43:32.760Z,3200
2018-06-24T07:44:13.326Z,3364
2018-06-24T07:44:53.921Z,2680
2018-06-24T07:45:34.537Z,2852
2018-06-24T07:46:15.071Z,2756
2018-06-24T07:46:55.624Z,2484
2018-06-24T07:47:36.208Z,2492
2018-06-24T07:48:16.823Z,1980
2018-06-24T07:48:57.374Z,2332
2018-06-24T07:49:38.014Z,1880
2018-06-24T07:50:18.601Z,1924
2018-06-24T07:50:59.631Z,2188
2018-06-24T07:51:40.235Z,2516
2018-06-24T07:52:20.840Z,2632
2018-06-24T07:53:04.272Z,2796
2018-06-24T07:53:45.221Z,2992
2018-06-24T07:54:25.783Z,3048
2018-06-24T07:55:06.939Z,2992
2018-06-24T07:55:48.015Z,2444
2018-06-24T07:56:28.556Z,2296
2018-06-24T07:57:09.186Z,2512
2018-06-24T07:57:49.762Z,2728
2018-06-24T07:58:30.446Z,2676
2018-06-24T07:59:11.001Z,2744
2018-06-24T07:59:51.958Z,2768
2018-06-24T08:00:32.562Z,3036
2018-06-24T08:01:13.103Z,2276
2018-06-24T08:01:53.920Z,2016
2018-06-24T08:02:34.905Z,2112
2018-06-24T08:03:15.489Z,2292
2018-06-24T08:03:56.286Z,2192
2018-06-24T08:04:36.886Z,2192
2018-06-24T08:05:17.442Z,2380
2018-06-24T08:05:58.332Z,2280
2018-06-24T08:06:40.305Z,2556
2018-06-24T08:07:20.815Z,2804
2018-06-24T08:08:01.435Z,2744
2018-06-24T08:08:41.954Z,2948
2018-06-24T08:09:22.588Z,2660
2018-06-24T08:10:03.208Z,2452
2018-06-24T08:10:43.883Z,2004
2018-06-24T08:11:24.704Z,1704
2018-06-24T08:12:05.352Z,1808
2018-06-24T08:12:45.841Z,2000
2018-06-24T08:13:26.421Z,2052
2018-06-24T08:14:07.233Z,2080
2018-06-24T08:14:48.752Z,2324
2018-06-24T08:15:29.893Z,2056
2018-06-24T08:16:10.833Z,2280
2018-06-24T08:16:51.421Z,2376
2018-06-24T08:17:32.150Z,2596
2018-06-24T08:18:13.610Z,2576
2018-06-24T08:18:54.915Z,2372
2018-06-24T08:19:36.174Z,2220
2018-06-24T08:20:16.592Z,2108
2018-06-24T08:20:59.899Z,2264
2018-06-24T08:21:42.924Z,2308
2018-06-24T08:22:23.462Z,1908
2018-06-24T08:23:03.984Z,2040
2018-06-24T08:23:44.590Z,1552
2018-06-24T08:24:25.123Z,1612
2018-06-24T08:25:05.653Z,1500
2018-06-24T08:25:46.257Z,1760
2018-06-24T08:26:26.814Z,1448
2018-06-24T08:27:07.415Z,1360
2018-06-24T08:27:47.982Z,1364
2018-06-24T08:28:28.649Z,1500
2018-06-24T08:29:09.172Z,1520
2018-06-24T08:29:49.683Z,1568
2018-06-24T08:30:30.263Z,1628
2018-06-24T08:31:10.849Z,1716
2018-06-24T08:31:51.395Z,1744
2018-06-24T08:32:31.961Z,1884
2018-06-24T08:33:12.527Z,1912
2018-06-24T08:33:53.085Z,1784
2018-06-24T08:34:33.664Z,1988
2018-06-24T08:35:14.216Z,2300
2018-06-24T08:35:54.865Z,2172
2018-06-24T08:36:35.543Z,2312
2018-06-24T08:37:16.134Z,2216
2018-06-24T08:37:56.711Z,2532
2018-06-24T08:38:37.261Z,3116
2018-06-24T08:39:17.790Z,3488
2018-06-24T08:39:58.346Z,3568
2018-06-24T08:40:38.893Z,3340
2018-06-24T08:41:19.448Z,3300
2018-06-24T08:42:00.054Z,3572
2018-06-24T08:42:40.613Z,4052
2018-06-24T08:43:21.203Z,4100
2018-06-24T08:44:01.837Z,4312
2018-06-24T08:44:42.416Z,3724
2018-06-24T08:45:22.973Z,3768
2018-06-24T08:46:03.576Z,3756
2018-06-24T08:46:44.155Z,3844
2018-06-24T08:47:24.740Z,4484
2018-06-24T08:48:05.287Z,3920
2018-06-24T08:48:45.897Z,4128
2018-06-24T08:49:26.458Z,3944
2018-06-24T08:50:07.014Z,3604
2018-06-24T08:50:47.626Z,3204
2018-06-24T08:51:28.203Z,3340
2018-06-24T08:52:08.786Z,3436
2018-06-24T08:52:49.350Z,4260
2018-06-24T08:53:29.903Z,4800
2018-06-24T08:54:10.454Z,4664
2018-06-24T08:54:51.143Z,4284
2018-06-24T08:55:32.048Z,3684
2018-06-24T08:56:12.614Z,3820
2018-06-24T08:56:53.175Z,4220
2018-06-24T08:57:33.706Z,4536
2018-06-24T08:58:14.298Z,4196
2018-06-24T08:58:55.045Z,4028
2018-06-24T08:59:35.813Z,3804
2018-06-24T09:00:16.802Z,3448
2018-06-24T09:00:58.324Z,3816
2018-06-24T09:01:39.910Z,3528
2018-06-24T09:02:20.973Z,3332
2018-06-24T09:03:01.991Z,3008
2018-06-24T09:03:42.782Z,2880
2018-06-24T09:04:23.520Z,3084
2018-06-24T09:05:04.124Z,3732
2018-06-24T09:05:46.145Z,4880
2018-06-24T09:06:26.790Z,4660
2018-06-24T09:07:07.348Z,4588
2018-06-24T09:07:47.996Z,5196
2018-06-24T09:08:29.517Z,5676
2018-06-24T09:09:10.284Z,6248
2018-06-24T09:09:50.977Z,6436
2018-06-24T09:10:31.558Z,6392
2018-06-24T09:11:12.148Z,6696
2018-06-24T09:11:52.714Z,7468
2018-06-24T09:12:33.324Z,7416
2018-06-24T09:13:13.914Z,7216
2018-06-24T09:13:55.041Z,6460
2018-06-24T09:14:35.847Z,5360
2018-06-24T09:15:16.601Z,6020
2018-06-24T09:15:57.377Z,6324
2018-06-24T09:16:37.997Z,5204
2018-06-24T09:17:18.669Z,3924
2018-06-24T09:17:59.217Z,3376
2018-06-24T09:18:39.761Z,3768
2018-06-24T09:19:20.649Z,5152
2018-06-24T09:20:01.496Z,5308
2018-06-24T09:20:42.523Z,5468
2018-06-24T09:21:23.556Z,5188
2018-06-24T09:22:04.962Z,6956
2018-06-24T09:22:45.797Z,9072
2018-06-24T09:23:26.579Z,7924